sensor_id;sensor_type;location;lat;lon;timestamp;pressure;altitude;pressure_sealevel;temperature
24740;BMP280;45234;48.148;17.128;2023-06-10T00:02:27;99580.09;;;17.88
24740;BMP280;45234;48.148;17.128;2023-06-10T00:04:55;99579.28;;;17.88
24740;BMP280;45234;48.148;17.128;2023-06-10T00:07:24;99585.31;;;17.88
24740;BMP280;45234;48.148;17.128;2023-06-10T00:09:51;99580.56;;;17.85
24740;BMP280;45234;48.148;17.128;2023-06-10T00:12:18;99582.69;;;17.83
24740;BMP280;45234;48.148;17.128;2023-06-10T00:14:47;99577.91;;;17.80
24740;BMP280;45234;48.148;17.128;2023-06-10T00:17:17;99576.84;;;17.76
24740;BMP280;45234;48.148;17.128;2023-06-10T00:19:45;99577.13;;;17.80
24740;BMP280;45234;48.148;17.128;2023-06-10T00:22:13;99575.56;;;17.79
24740;BMP280;45234;48.148;17.128;2023-06-10T00:24:41;99575.81;;;17.77
24740;BMP280;45234;48.148;17.128;2023-06-10T00:27:09;99578.97;;;17.74
24740;BMP280;45234;48.148;17.128;2023-06-10T00:29:36;99573.72;;;17.74
24740;BMP280;45234;48.148;17.128;2023-06-10T00:32:04;99581.03;;;17.72
24740;BMP280;45234;48.148;17.128;2023-06-10T00:34:32;99574.69;;;17.68
24740;BMP280;45234;48.148;17.128;2023-06-10T00:36:59;99585.72;;;17.65
24740;BMP280;45234;48.148;17.128;2023-06-10T00:39:26;99578.88;;;17.64
24740;BMP280;45234;48.148;17.128;2023-06-10T00:41:53;99589.63;;;17.62
24740;BMP280;45234;48.148;17.128;2023-06-10T00:44:21;99599.53;;;17.60
24740;BMP280;45234;48.148;17.128;2023-06-10T00:46:48;99597.19;;;17.59
24740;BMP280;45234;48.148;17.128;2023-06-10T00:49:18;99601.38;;;17.55
24740;BMP280;45234;48.148;17.128;2023-06-10T00:51:46;99599.78;;;17.54
24740;BMP280;45234;48.148;17.128;2023-06-10T00:54:14;99599.00;;;17.53
24740;BMP280;45234;48.148;17.128;2023-06-10T00:56:41;99597.63;;;17.51
24740;BMP280;45234;48.148;17.128;2023-06-10T00:59:10;99600.03;;;17.52
24740;BMP280;45234;48.148;17.128;2023-06-10T01:01:37;99592.94;;;17.53
24740;BMP280;45234;48.148;17.128;2023-06-10T01:04:05;99600.56;;;17.54
24740;BMP280;45234;48.148;17.128;2023-06-10T01:09:33;99596.38;;;17.53
24740;BMP280;45234;48.148;17.128;2023-06-10T01:14:36;99600.31;;;17.61
24740;BMP280;45234;48.148;17.128;2023-06-10T01:17:03;99601.44;;;17.65
24740;BMP280;45234;48.148;17.128;2023-06-10T01:19:32;99600.38;;;17.66
24740;BMP280;45234;48.148;17.128;2023-06-10T01:22:01;99594.09;;;17.67
24740;BMP280;45234;48.148;17.128;2023-06-10T01:24:28;99595.69;;;17.68
24740;BMP280;45234;48.148;17.128;2023-06-10T01:27:00;99596.19;;;17.70
24740;BMP280;45234;48.148;17.128;2023-06-10T01:30:03;99598.75;;;17.60
24740;BMP280;45234;48.148;17.128;2023-06-10T01:32:40;99592.00;;;17.69
24740;BMP280;45234;48.148;17.128;2023-06-10T01:35:08;99593.09;;;17.73
24740;BMP280;45234;48.148;17.128;2023-06-10T01:37:38;99589.44;;;17.74
24740;BMP280;45234;48.148;17.128;2023-06-10T01:40:08;99599.94;;;17.74
24740;BMP280;45234;48.148;17.128;2023-06-10T01:42:35;99612.50;;;17.77
24740;BMP280;45234;48.148;17.128;2023-06-10T01:45:03;99613.06;;;17.79
24740;BMP280;45234;48.148;17.128;2023-06-10T01:47:31;99605.19;;;17.79
24740;BMP280;45234;48.148;17.128;2023-06-10T01:49:59;99599.16;;;17.79
24740;BMP280;45234;48.148;17.128;2023-06-10T01:52:31;99607.81;;;17.79
24740;BMP280;45234;48.148;17.128;2023-06-10T01:55:00;99602.56;;;17.79
24740;BMP280;45234;48.148;17.128;2023-06-10T01:57:31;99598.88;;;17.80
24740;BMP280;45234;48.148;17.128;2023-06-10T02:00:04;99592.09;;;17.79
24740;BMP280;45234;48.148;17.128;2023-06-10T02:02:40;99597.81;;;17.76
24740;BMP280;45234;48.148;17.128;2023-06-10T02:05:08;99590.19;;;17.74
24740;BMP280;45234;48.148;17.128;2023-06-10T02:07:35;99598.34;;;17.73
24740;BMP280;45234;48.148;17.128;2023-06-10T02:10:02;99605.41;;;17.72
24740;BMP280;45234;48.148;17.128;2023-06-10T02:12:31;99610.88;;;17.71
24740;BMP280;45234;48.148;17.128;2023-06-10T02:14:59;99614.81;;;17.68
24740;BMP280;45234;48.148;17.128;2023-06-10T02:17:30;99612.44;;;17.67
24740;BMP280;45234;48.148;17.128;2023-06-10T02:20:16;99612.44;;;17.67
24740;BMP280;45234;48.148;17.128;2023-06-10T02:22:43;99608.50;;;17.64
24740;BMP280;45234;48.148;17.128;2023-06-10T02:25:11;99620.06;;;17.68
24740;BMP280;45234;48.148;17.128;2023-06-10T02:27:38;99619.25;;;17.68
24740;BMP280;45234;48.148;17.128;2023-06-10T02:30:06;99616.09;;;17.66
24740;BMP280;45234;48.148;17.128;2023-06-10T02:32:35;99612.97;;;17.64
24740;BMP280;45234;48.148;17.128;2023-06-10T02:35:03;99609.03;;;17.66
24740;BMP280;45234;48.148;17.128;2023-06-10T02:37:31;99617.16;;;17.65
24740;BMP280;45234;48.148;17.128;2023-06-10T02:39:59;99607.16;;;17.62
24740;BMP280;45234;48.148;17.128;2023-06-10T02:42:27;99610.81;;;17.61
24740;BMP280;45234;48.148;17.128;2023-06-10T02:44:54;99605.03;;;17.59
24740;BMP280;45234;48.148;17.128;2023-06-10T02:47:32;99608.69;;;17.58
24740;BMP280;45234;48.148;17.128;2023-06-10T02:50:00;99611.31;;;17.58
24740;BMP280;45234;48.148;17.128;2023-06-10T02:52:30;99610.28;;;17.59
24740;BMP280;45234;48.148;17.128;2023-06-10T02:54:58;99610.53;;;17.57
24740;BMP280;45234;48.148;17.128;2023-06-10T02:57:26;99613.94;;;17.58
24740;BMP280;45234;48.148;17.128;2023-06-10T02:59:53;99606.06;;;17.58
24740;BMP280;45234;48.148;17.128;2023-06-10T03:02:21;99611.31;;;17.58
24740;BMP280;45234;48.148;17.128;2023-06-10T03:04:50;99614.50;;;17.60
24740;BMP280;45234;48.148;17.128;2023-06-10T03:07:18;99611.31;;;17.58
24740;BMP280;45234;48.148;17.128;2023-06-10T03:09:49;99608.69;;;17.58
24740;BMP280;45234;48.148;17.128;2023-06-10T03:12:17;99608.69;;;17.58
24740;BMP280;45234;48.148;17.128;2023-06-10T03:14:47;99607.38;;;17.60
24740;BMP280;45234;48.148;17.128;2023-06-10T03:17:16;99603.22;;;17.59
24740;BMP280;45234;48.148;17.128;2023-06-10T03:19:44;99605.56;;;17.61
24740;BMP280;45234;48.148;17.128;2023-06-10T03:22:14;99607.91;;;17.57
24740;BMP280;45234;48.148;17.128;2023-06-10T03:24:51;99616.31;;;17.59
24740;BMP280;45234;48.148;17.128;2023-06-10T03:27:19;99610.81;;;17.61
24740;BMP280;45234;48.148;17.128;2023-06-10T03:29:50;99613.22;;;17.62
24740;BMP280;45234;48.148;17.128;2023-06-10T03:32:20;99614.00;;;17.63
24740;BMP280;45234;48.148;17.128;2023-06-10T03:34:47;99617.16;;;17.65
24740;BMP280;45234;48.148;17.128;2023-06-10T03:37:14;99621.28;;;17.61
24740;BMP280;45234;48.148;17.128;2023-06-10T03:39:44;99616.38;;;17.64
24740;BMP280;45234;48.148;17.128;2023-06-10T03:42:11;99616.63;;;17.68
24740;BMP280;45234;48.148;17.128;2023-06-10T03:44:38;99616.91;;;17.71
24740;BMP280;45234;48.148;17.128;2023-06-10T03:47:06;99620.13;;;17.79
24740;BMP280;45234;48.148;17.128;2023-06-10T03:49:33;99623.03;;;17.82
24740;BMP280;45234;48.148;17.128;2023-06-10T03:52:01;99612.59;;;17.87
24740;BMP280;45234;48.148;17.128;2023-06-10T03:54:29;99617.06;;;17.92
24740;BMP280;45234;48.148;17.128;2023-06-10T03:56:56;99616.84;;;17.98
24740;BMP280;45234;48.148;17.128;2023-06-10T03:59:23;99608.47;;;18.01
24740;BMP280;45234;48.148;17.128;2023-06-10T04:01:50;99608.47;;;18.01
24740;BMP280;45234;48.148;17.128;2023-06-10T04:04:18;99606.88;;;18.00
24740;BMP280;45234;48.148;17.128;2023-06-10T04:06:45;99610.03;;;18.02
24740;BMP280;45234;48.148;17.128;2023-06-10T04:09:14;99604.03;;;18.07
24740;BMP280;45234;48.148;17.128;2023-06-10T04:11:41;99606.69;;;18.12
24740;BMP280;45234;48.148;17.128;2023-06-10T04:14:09;99608.56;;;18.17
24740;BMP280;45234;48.148;17.128;2023-06-10T04:16:38;99611.19;;;18.22
24740;BMP280;45234;48.148;17.128;2023-06-10T04:19:05;99609.66;;;18.26
24740;BMP280;45234;48.148;17.128;2023-06-10T04:21:32;99611.50;;;18.30
24740;BMP280;45234;48.148;17.128;2023-06-10T04:23:59;99612.53;;;18.34
24740;BMP280;45234;48.148;17.128;2023-06-10T04:26:27;99611.00;;;18.38
24740;BMP280;45234;48.148;17.128;2023-06-10T04:28:55;99616.00;;;18.45
24740;BMP280;45234;48.148;17.128;2023-06-10T04:31:22;99610.78;;;18.50
24740;BMP280;45234;48.148;17.128;2023-06-10T04:33:50;99626.84;;;18.59
24740;BMP280;45234;48.148;17.128;2023-06-10T04:36:17;99628.97;;;18.72
24740;BMP280;45234;48.148;17.128;2023-06-10T04:38:44;99628.22;;;18.86
24740;BMP280;45234;48.148;17.128;2023-06-10T04:41:12;99629.31;;;19.01
24740;BMP280;45234;48.148;17.128;2023-06-10T04:43:40;99632.16;;;19.19
24740;BMP280;45234;48.148;17.128;2023-06-10T04:46:07;99634.03;;;19.34
24740;BMP280;45234;48.148;17.128;2023-06-10T04:48:36;99632.47;;;19.53
24740;BMP280;45234;48.148;17.128;2023-06-10T04:51:03;99632.72;;;19.67
24740;BMP280;45234;48.148;17.128;2023-06-10T04:53:33;99637.69;;;19.84
24740;BMP280;45234;48.148;17.128;2023-06-10T04:56:01;99636.03;;;20.03
24740;BMP280;45234;48.148;17.128;2023-06-10T04:58:29;99640.72;;;20.26
24740;BMP280;45234;48.148;17.128;2023-06-10T05:00:57;99636.94;;;20.48
24740;BMP280;45234;48.148;17.128;2023-06-10T05:03:25;99628.72;;;20.54
24740;BMP280;45234;48.148;17.128;2023-06-10T05:05:52;99630.81;;;20.62
24740;BMP280;45234;48.148;17.128;2023-06-10T05:08:19;99645.53;;;20.63
24740;BMP280;45234;48.148;17.128;2023-06-10T05:10:46;99640.47;;;20.67
24740;BMP280;45234;48.148;17.128;2023-06-10T05:13:13;99642.06;;;20.68
24740;BMP280;45234;48.148;17.128;2023-06-10T05:15:40;99641.47;;;20.81
24740;BMP280;45234;48.148;17.128;2023-06-10T05:18:11;99642.91;;;21.02
24740;BMP280;45234;48.148;17.128;2023-06-10T05:20:42;99644.25;;;21.29
24740;BMP280;45234;48.148;17.128;2023-06-10T05:23:10;99644.97;;;21.68
24740;BMP280;45234;48.148;17.128;2023-06-10T05:25:37;99645.31;;;21.85
24740;BMP280;45234;48.148;17.128;2023-06-10T05:28:06;99644.75;;;21.88
24740;BMP280;45234;48.148;17.128;2023-06-10T05:30:39;99641.16;;;21.79
24740;BMP280;45234;48.148;17.128;2023-06-10T05:33:06;99652.38;;;21.66
24740;BMP280;45234;48.148;17.128;2023-06-10T05:35:33;99655.72;;;21.48
24740;BMP280;45234;48.148;17.128;2023-06-10T05:38:09;99652.75;;;21.26
24740;BMP280;45234;48.148;17.128;2023-06-10T05:40:37;99653.13;;;21.09
24740;BMP280;45234;48.148;17.128;2023-06-10T05:43:04;99659.81;;;20.96
24740;BMP280;45234;48.148;17.128;2023-06-10T05:45:32;99664.09;;;20.87
24740;BMP280;45234;48.148;17.128;2023-06-10T05:48:00;99661.06;;;20.70
24740;BMP280;45234;48.148;17.128;2023-06-10T05:50:34;99655.59;;;20.51
24740;BMP280;45234;48.148;17.128;2023-06-10T05:53:06;99659.31;;;20.45
24740;BMP280;45234;48.148;17.128;2023-06-10T05:55:34;99660.59;;;20.53
24740;BMP280;45234;48.148;17.128;2023-06-10T05:58:03;99650.00;;;20.63
24740;BMP280;45234;48.148;17.128;2023-06-10T06:00:30;99655.66;;;20.90
24740;BMP280;45234;48.148;17.128;2023-06-10T06:02:58;99662.63;;;21.44
24740;BMP280;45234;48.148;17.128;2023-06-10T06:05:26;99658.22;;;22.72
24740;BMP280;45234;48.148;17.128;2023-06-10T06:07:53;99648.78;;;25.15
24740;BMP280;45234;48.148;17.128;2023-06-10T06:10:20;99648.44;;;27.70
24740;BMP280;45234;48.148;17.128;2023-06-10T06:12:47;99657.25;;;29.38
24740;BMP280;45234;48.148;17.128;2023-06-10T06:15:15;99659.09;;;30.29
24740;BMP280;45234;48.148;17.128;2023-06-10T06:17:42;99654.19;;;29.64
24740;BMP280;45234;48.148;17.128;2023-06-10T06:20:11;99651.63;;;28.58
24740;BMP280;45234;48.148;17.128;2023-06-10T06:22:39;99651.59;;;27.63
24740;BMP280;45234;48.148;17.128;2023-06-10T06:25:07;99645.97;;;26.97
24740;BMP280;45234;48.148;17.128;2023-06-10T06:27:36;99650.75;;;26.66
24740;BMP280;45234;48.148;17.128;2023-06-10T06:30:04;99652.66;;;26.40
24740;BMP280;45234;48.148;17.128;2023-06-10T06:32:33;99656.09;;;26.32
24740;BMP280;45234;48.148;17.128;2023-06-10T06:35:00;99657.38;;;26.08
24740;BMP280;45234;48.148;17.128;2023-06-10T06:37:29;99657.38;;;25.60
24740;BMP280;45234;48.148;17.128;2023-06-10T06:40:16;99659.91;;;25.26
24740;BMP280;45234;48.148;17.128;2023-06-10T06:42:44;99656.88;;;24.88
24740;BMP280;45234;48.148;17.128;2023-06-10T06:45:22;99662.81;;;24.49
24740;BMP280;45234;48.148;17.128;2023-06-10T06:47:49;99657.44;;;24.18
24740;BMP280;45234;48.148;17.128;2023-06-10T06:50:17;99654.31;;;23.89
24740;BMP280;45234;48.148;17.128;2023-06-10T06:52:45;99660.41;;;23.62
24740;BMP280;45234;48.148;17.128;2023-06-10T06:55:12;99665.75;;;23.43
24740;BMP280;45234;48.148;17.128;2023-06-10T06:57:41;99658.28;;;23.18
24740;BMP280;45234;48.148;17.128;2023-06-10T07:00:09;99656.38;;;23.05
24740;BMP280;45234;48.148;17.128;2023-06-10T07:02:36;99659.84;;;23.00
24740;BMP280;45234;48.148;17.128;2023-06-10T07:05:04;99657.22;;;23.00
24740;BMP280;45234;48.148;17.128;2023-06-10T07:07:33;99670.34;;;23.38
24740;BMP280;45234;48.148;17.128;2023-06-10T07:10:00;99670.22;;;24.38
24740;BMP280;45234;48.148;17.128;2023-06-10T07:12:30;99673.66;;;25.67
24740;BMP280;45234;48.148;17.128;2023-06-10T07:15:00;99674.25;;;26.21
24740;BMP280;45234;48.148;17.128;2023-06-10T07:17:30;99671.88;;;26.28
24740;BMP280;45234;48.148;17.128;2023-06-10T07:19:56;99677.19;;;26.19
24740;BMP280;45234;48.148;17.128;2023-06-10T07:22:28;99679.38;;;26.00
24740;BMP280;45234;48.148;17.128;2023-06-10T07:24:54;99675.97;;;25.60
24740;BMP280;45234;48.148;17.128;2023-06-10T07:27:25;99674.94;;;25.08
24740;BMP280;45234;48.148;17.128;2023-06-10T07:29:52;99674.78;;;24.60
24740;BMP280;45234;48.148;17.128;2023-06-10T07:32:19;99672.44;;;24.45
24740;BMP280;45234;48.148;17.128;2023-06-10T07:34:51;99670.19;;;24.16
24740;BMP280;45234;48.148;17.128;2023-06-10T07:37:18;99682.44;;;23.85
24740;BMP280;45234;48.148;17.128;2023-06-10T07:39:47;99679.09;;;23.52
24740;BMP280;45234;48.148;17.128;2023-06-10T07:42:15;99683.91;;;23.36
24740;BMP280;45234;48.148;17.128;2023-06-10T07:44:43;99679.34;;;23.23
24740;BMP280;45234;48.148;17.128;2023-06-10T07:47:10;99684.34;;;23.24
24740;BMP280;45234;48.148;17.128;2023-06-10T07:49:37;99680.31;;;23.27
24740;BMP280;45234;48.148;17.128;2023-06-10T07:52:06;99682.56;;;23.20
24740;BMP280;45234;48.148;17.128;2023-06-10T07:54:33;99686.16;;;23.10
24740;BMP280;45234;48.148;17.128;2023-06-10T07:57:00;99686.69;;;22.94
24740;BMP280;45234;48.148;17.128;2023-06-10T07:59:27;99685.03;;;22.79
24740;BMP280;45234;48.148;17.128;2023-06-10T08:01:54;99682.41;;;22.60
24740;BMP280;45234;48.148;17.128;2023-06-10T08:04:21;99686.31;;;22.44
24740;BMP280;45234;48.148;17.128;2023-06-10T08:06:49;99690.94;;;22.90
24740;BMP280;45234;48.148;17.128;2023-06-10T08:09:16;99690.56;;;24.16
24740;BMP280;45234;48.148;17.128;2023-06-10T08:11:47;99687.13;;;24.65
24740;BMP280;45234;48.148;17.128;2023-06-10T08:14:17;99690.25;;;24.67
24740;BMP280;45234;48.148;17.128;2023-06-10T08:16:44;99695.16;;;24.60
24740;BMP280;45234;48.148;17.128;2023-06-10T08:19:12;99694.44;;;24.45
24740;BMP280;45234;48.148;17.128;2023-06-10T08:21:40;99697.81;;;24.37
24740;BMP280;45234;48.148;17.128;2023-06-10T08:24:08;99688.59;;;24.21
24740;BMP280;45234;48.148;17.128;2023-06-10T08:26:37;99699.03;;;24.18
24740;BMP280;45234;48.148;17.128;2023-06-10T08:29:04;99685.84;;;24.26
24740;BMP280;45234;48.148;17.128;2023-06-10T08:31:33;99693.66;;;24.45
24740;BMP280;45234;48.148;17.128;2023-06-10T08:34:00;99692.50;;;24.73
24740;BMP280;45234;48.148;17.128;2023-06-10T08:36:27;99688.53;;;25.07
24740;BMP280;45234;48.148;17.128;2023-06-10T08:38:54;99689.81;;;25.18
24740;BMP280;45234;48.148;17.128;2023-06-10T08:41:24;99686.06;;;25.19
24740;BMP280;45234;48.148;17.128;2023-06-10T08:44:02;99681.28;;;24.98
24740;BMP280;45234;48.148;17.128;2023-06-10T08:46:32;99686.28;;;25.00
24740;BMP280;45234;48.148;17.128;2023-06-10T08:49:03;99676.03;;;25.07
24740;BMP280;45234;48.148;17.128;2023-06-10T08:51:31;99681.84;;;25.18
24740;BMP280;45234;48.148;17.128;2023-06-10T08:54:09;99674.22;;;24.94
24740;BMP280;45234;48.148;17.128;2023-06-10T08:56:40;99675.91;;;24.68
24740;BMP280;45234;48.148;17.128;2023-06-10T08:59:09;99680.41;;;24.45
24740;BMP280;45234;48.148;17.128;2023-06-10T09:01:37;99678.63;;;24.18
24740;BMP280;45234;48.148;17.128;2023-06-10T09:04:06;99686.25;;;24.06
24740;BMP280;45234;48.148;17.128;2023-06-10T09:06:33;99687.56;;;23.95
24740;BMP280;45234;48.148;17.128;2023-06-10T09:09:01;99686.66;;;23.86
24740;BMP280;45234;48.148;17.128;2023-06-10T09:11:30;99691.59;;;23.79
24740;BMP280;45234;48.148;17.128;2023-06-10T09:13:59;99693.69;;;23.63
24740;BMP280;45234;48.148;17.128;2023-06-10T09:16:27;99692.44;;;23.47
24740;BMP280;45234;48.148;17.128;2023-06-10T09:18:54;99693.28;;;23.42
24740;BMP280;45234;48.148;17.128;2023-06-10T09:21:23;99686.53;;;23.50
24740;BMP280;45234;48.148;17.128;2023-06-10T09:23:51;99690.28;;;23.62
24740;BMP280;45234;48.148;17.128;2023-06-10T09:26:28;99689.19;;;23.63
24740;BMP280;45234;48.148;17.128;2023-06-10T09:29:06;99690.09;;;23.73
24740;BMP280;45234;48.148;17.128;2023-06-10T09:31:35;99691.75;;;23.82
24740;BMP280;45234;48.148;17.128;2023-06-10T09:34:11;99689.53;;;23.76
24740;BMP280;45234;48.148;17.128;2023-06-10T09:36:41;99685.81;;;23.77
24740;BMP280;45234;48.148;17.128;2023-06-10T09:39:18;99694.47;;;23.50
24740;BMP280;45234;48.148;17.128;2023-06-10T09:41:47;99680.34;;;23.41
24740;BMP280;45234;48.148;17.128;2023-06-10T09:44:17;99678.63;;;23.63
24740;BMP280;45234;48.148;17.128;2023-06-10T09:46:52;99688.53;;;23.99
24740;BMP280;45234;48.148;17.128;2023-06-10T09:49:21;99682.69;;;24.51
24740;BMP280;45234;48.148;17.128;2023-06-10T09:51:54;99680.28;;;24.86
24740;BMP280;45234;48.148;17.128;2023-06-10T09:54:22;99682.53;;;25.32
24740;BMP280;45234;48.148;17.128;2023-06-10T09:56:51;99686.75;;;25.24
24740;BMP280;45234;48.148;17.128;2023-06-10T09:59:30;99681.50;;;24.66
24740;BMP280;45234;48.148;17.128;2023-06-10T10:02:01;99670.59;;;24.45
24740;BMP280;45234;48.148;17.128;2023-06-10T10:04:28;99673.97;;;24.24
24740;BMP280;45234;48.148;17.128;2023-06-10T10:06:55;99674.69;;;24.16
24740;BMP280;45234;48.148;17.128;2023-06-10T10:09:22;99668.25;;;24.08
24740;BMP280;45234;48.148;17.128;2023-06-10T10:11:50;99678.41;;;23.74
24740;BMP280;45234;48.148;17.128;2023-06-10T10:14:19;99677.16;;;23.44
24740;BMP280;45234;48.148;17.128;2023-06-10T10:16:47;99675.09;;;23.22
24740;BMP280;45234;48.148;17.128;2023-06-10T10:19:30;99677.56;;;23.00
24740;BMP280;45234;48.148;17.128;2023-06-10T10:22:04;99674.53;;;22.93
24740;BMP280;45234;48.148;17.128;2023-06-10T10:24:38;99677.03;;;23.03
24740;BMP280;45234;48.148;17.128;2023-06-10T10:27:15;99673.81;;;23.06
24740;BMP280;45234;48.148;17.128;2023-06-10T10:29:47;99669.94;;;23.17
24740;BMP280;45234;48.148;17.128;2023-06-10T10:32:19;99677.22;;;23.39
24740;BMP280;45234;48.148;17.128;2023-06-10T10:35:14;99672.13;;;23.42
24740;BMP280;45234;48.148;17.128;2023-06-10T10:37:43;99668.75;;;23.69
24740;BMP280;45234;48.148;17.128;2023-06-10T10:40:11;99673.22;;;23.96
24740;BMP280;45234;48.148;17.128;2023-06-10T10:42:38;99660.34;;;24.17
24740;BMP280;45234;48.148;17.128;2023-06-10T10:45:07;99659.97;;;24.23
24740;BMP280;45234;48.148;17.128;2023-06-10T10:47:36;99665.78;;;24.47
24740;BMP280;45234;48.148;17.128;2023-06-10T10:50:17;99661.09;;;24.67
24740;BMP280;45234;48.148;17.128;2023-06-10T10:53:05;99665.06;;;24.78
24740;BMP280;45234;48.148;17.128;2023-06-10T10:55:32;99666.09;;;25.21
24740;BMP280;45234;48.148;17.128;2023-06-10T10:58:07;99662.16;;;25.41
24740;BMP280;45234;48.148;17.128;2023-06-10T11:00:36;99670.84;;;25.72
24740;BMP280;45234;48.148;17.128;2023-06-10T11:03:06;99665.72;;;25.84
24740;BMP280;45234;48.148;17.128;2023-06-10T11:08:11;99655.78;;;26.33
24740;BMP280;45234;48.148;17.128;2023-06-10T11:10:40;99656.25;;;26.44
24740;BMP280;45234;48.148;17.128;2023-06-10T11:13:09;99653.72;;;26.39
24740;BMP280;45234;48.148;17.128;2023-06-10T11:15:44;99647.34;;;26.31
24740;BMP280;45234;48.148;17.128;2023-06-10T11:18:22;99650.75;;;26.49
24740;BMP280;45234;48.148;17.128;2023-06-10T11:23:42;99643.28;;;26.42
24740;BMP280;45234;48.148;17.128;2023-06-10T11:26:21;99637.50;;;26.40
24740;BMP280;45234;48.148;17.128;2023-06-10T11:34:03;99627.63;;;26.49
24740;BMP280;45234;48.148;17.128;2023-06-10T11:36:33;99623.69;;;26.64
24740;BMP280;45234;48.148;17.128;2023-06-10T11:39:04;99617.75;;;26.67
24740;BMP280;45234;48.148;17.128;2023-06-10T11:41:33;99622.16;;;26.63
24740;BMP280;45234;48.148;17.128;2023-06-10T11:46:36;99624.03;;;26.54
24740;BMP280;45234;48.148;17.128;2023-06-10T11:49:04;99614.31;;;26.58
24740;BMP280;45234;48.148;17.128;2023-06-10T11:51:35;99611.31;;;26.68
24740;BMP280;45234;48.148;17.128;2023-06-10T11:54:03;99606.75;;;26.77
24740;BMP280;45234;48.148;17.128;2023-06-10T11:56:31;99613.19;;;26.67
24740;BMP280;45234;48.148;17.128;2023-06-10T11:59:04;99609.31;;;26.48
24740;BMP280;45234;48.148;17.128;2023-06-10T12:01:32;99610.28;;;25.83
24740;BMP280;45234;48.148;17.128;2023-06-10T12:06:26;99604.53;;;26.24
24740;BMP280;45234;48.148;17.128;2023-06-10T12:08:56;99604.69;;;26.02
24740;BMP280;45234;48.148;17.128;2023-06-10T12:11:40;99599.16;;;25.72
24740;BMP280;45234;48.148;17.128;2023-06-10T12:14:07;99600.53;;;25.53
24740;BMP280;45234;48.148;17.128;2023-06-10T12:16:35;99601.94;;;25.50
24740;BMP280;45234;48.148;17.128;2023-06-10T12:19:04;99602.25;;;25.49
24740;BMP280;45234;48.148;17.128;2023-06-10T12:21:34;99594.22;;;25.31
24740;BMP280;45234;48.148;17.128;2023-06-10T12:26:40;99585.97;;;25.24
24740;BMP280;45234;48.148;17.128;2023-06-10T12:29:22;99584.31;;;25.06
24740;BMP280;45234;48.148;17.128;2023-06-10T12:32:02;99590.22;;;25.12
24740;BMP280;45234;48.148;17.128;2023-06-10T12:37:11;99587.78;;;24.84
24740;BMP280;45234;48.148;17.128;2023-06-10T12:39:41;99589.19;;;24.82
24740;BMP280;45234;48.148;17.128;2023-06-10T12:42:12;99583.97;;;24.77
24740;BMP280;45234;48.148;17.128;2023-06-10T12:44:42;99587.00;;;24.84
24740;BMP280;45234;48.148;17.128;2023-06-10T12:47:11;99595.44;;;24.86
24740;BMP280;45234;48.148;17.128;2023-06-10T12:49:40;99601.47;;;24.78
24740;BMP280;45234;48.148;17.128;2023-06-10T12:52:08;99590.41;;;24.53
24740;BMP280;45234;48.148;17.128;2023-06-10T12:54:35;99590.78;;;24.25
24740;BMP280;45234;48.148;17.128;2023-06-10T12:57:03;99591.06;;;24.01
24740;BMP280;45234;48.148;17.128;2023-06-10T12:59:30;99588.50;;;23.96
24740;BMP280;45234;48.148;17.128;2023-06-10T13:01:59;99588.50;;;23.96
24740;BMP280;45234;48.148;17.128;2023-06-10T13:04:26;99587.53;;;23.92
24740;BMP280;45234;48.148;17.128;2023-06-10T13:06:53;99587.81;;;24.04
24740;BMP280;45234;48.148;17.128;2023-06-10T13:09:21;99588.19;;;24.11
24740;BMP280;45234;48.148;17.128;2023-06-10T13:11:48;99584.41;;;24.26
24740;BMP280;45234;48.148;17.128;2023-06-10T13:14:14;99581.63;;;24.44
24740;BMP280;45234;48.148;17.128;2023-06-10T13:16:42;99577.03;;;24.59
24740;BMP280;45234;48.148;17.128;2023-06-10T13:19:11;99586.28;;;24.70
24740;BMP280;45234;48.148;17.128;2023-06-10T13:21:39;99573.81;;;24.70
24740;BMP280;45234;48.148;17.128;2023-06-10T13:24:08;99576.66;;;24.74
24740;BMP280;45234;48.148;17.128;2023-06-10T13:26:35;99583.38;;;24.80
24740;BMP280;45234;48.148;17.128;2023-06-10T13:29:03;99577.03;;;24.89
24740;BMP280;45234;48.148;17.128;2023-06-10T13:31:46;99583.72;;;24.87
24740;BMP280;45234;48.148;17.128;2023-06-10T13:34:13;99581.34;;;25.08
24740;BMP280;45234;48.148;17.128;2023-06-10T13:36:41;99584.66;;;25.13
24740;BMP280;45234;48.148;17.128;2023-06-10T13:39:11;99578.28;;;25.14
24740;BMP280;45234;48.148;17.128;2023-06-10T13:41:41;99580.41;;;25.12
24740;BMP280;45234;48.148;17.128;2023-06-10T13:44:10;99572.63;;;25.07
24740;BMP280;45234;48.148;17.128;2023-06-10T13:46:37;99575.09;;;25.04
24740;BMP280;45234;48.148;17.128;2023-06-10T13:49:06;99563.03;;;24.97
24740;BMP280;45234;48.148;17.128;2023-06-10T13:51:34;99569.09;;;24.89
24740;BMP280;45234;48.148;17.128;2023-06-10T13:54:04;99561.84;;;24.73
24740;BMP280;45234;48.148;17.128;2023-06-10T13:56:35;99556.41;;;24.55
24740;BMP280;45234;48.148;17.128;2023-06-10T13:59:07;99557.44;;;24.46
24740;BMP280;45234;48.148;17.128;2023-06-10T14:01:35;99554.50;;;24.47
24740;BMP280;45234;48.148;17.128;2023-06-10T14:04:05;99559.81;;;24.47
24740;BMP280;45234;48.148;17.128;2023-06-10T14:06:34;99559.63;;;24.44
24740;BMP280;45234;48.148;17.128;2023-06-10T14:09:09;99554.75;;;24.37
24740;BMP280;45234;48.148;17.128;2023-06-10T14:11:40;99557.72;;;24.00
24740;BMP280;45234;48.148;17.128;2023-06-10T14:14:10;99558.06;;;24.43
24740;BMP280;45234;48.148;17.128;2023-06-10T14:16:40;99552.69;;;24.57
24740;BMP280;45234;48.148;17.128;2023-06-10T14:19:10;99557.63;;;24.72
24740;BMP280;45234;48.148;17.128;2023-06-10T14:21:45;99551.91;;;24.87
24740;BMP280;45234;48.148;17.128;2023-06-10T14:24:15;99546.97;;;24.94
24740;BMP280;45234;48.148;17.128;2023-06-10T14:26:42;99552.28;;;24.94
24740;BMP280;45234;48.148;17.128;2023-06-10T14:29:12;99559.56;;;24.88
24740;BMP280;45234;48.148;17.128;2023-06-10T14:31:45;99549.59;;;24.85
24740;BMP280;45234;48.148;17.128;2023-06-10T14:34:15;99557.09;;;24.92
24740;BMP280;45234;48.148;17.128;2023-06-10T14:36:49;99558.09;;;25.05